Terminal Aerodrome Forecast
Issued by NWS

Home | Current Version | Previous Version | Text Only | Print | Product List | Glossary On
Versions: 1 2 3 4 5 6 7 8 9 10 11 12 13 14 15 16 17 18 19 20 21 22 23 24 25
000
FTUS41 KBTV 230314 AAA
TAFMPV
TAF AMD
KMPV 230314Z 2303/2324 36006KT P6SM OVC015
      TEMPO 2303/2307 5SM -SHRA SCT007 OVC012
     FM230700 34010KT 4SM -RA BR SCT007 OVC010
     FM231200 34012G20KT 3SM -RA BR SCT004 OVC007=

USA.gov is the U.S. government's official web portal to all federal, state and local government web resources and services.